sensor_id;sensor_type;location;lat;lon;timestamp;pressure;altitude;pressure_sealevel;temperature;humidity
77572;BME280;67214;47.454;18.966;2023-03-12T00:00:05;99633.23;;;1.40;57.26
77572;BME280;67214;47.454;18.966;2023-03-12T00:02:34;99626.80;;;1.38;57.11
77572;BME280;67214;47.454;18.966;2023-03-12T00:05:02;99636.30;;;1.39;57.32
77572;BME280;67214;47.454;18.966;2023-03-12T00:07:30;99644.00;;;1.43;57.29
77572;BME280;67214;47.454;18.966;2023-03-12T00:09:57;99638.61;;;1.46;56.74
77572;BME280;67214;47.454;18.966;2023-03-12T00:12:25;99639.86;;;1.38;56.65
77572;BME280;67214;47.454;18.966;2023-03-12T00:14:52;99641.85;;;1.42;56.46
77572;BME280;67214;47.454;18.966;2023-03-12T00:17:19;99645.38;;;1.41;56.08
77572;BME280;67214;47.454;18.966;2023-03-12T00:19:51;99645.99;;;1.46;55.57
77572;BME280;67214;47.454;18.966;2023-03-12T00:22:22;99647.20;;;1.48;54.89
77572;BME280;67214;47.454;18.966;2023-03-12T00:24:52;99657.53;;;1.42;54.84
77572;BME280;67214;47.454;18.966;2023-03-12T00:27:21;99661.91;;;1.42;54.50
77572;BME280;67214;47.454;18.966;2023-03-12T00:29:48;99661.51;;;1.40;54.68
77572;BME280;67214;47.454;18.966;2023-03-12T00:32:16;99670.27;;;1.39;54.00
77572;BME280;67214;47.454;18.966;2023-03-12T00:34:48;99664.74;;;1.37;54.01
77572;BME280;67214;47.454;18.966;2023-03-12T00:37:13;99666.67;;;1.42;54.16
77572;BME280;67214;47.454;18.966;2023-03-12T00:39:40;99673.03;;;1.45;54.27
77572;BME280;67214;47.454;18.966;2023-03-12T00:42:07;99684.17;;;1.40;53.67
77572;BME280;67214;47.454;18.966;2023-03-12T00:44:35;99683.48;;;1.36;54.18
77572;BME280;67214;47.454;18.966;2023-03-12T00:47:02;99687.57;;;1.33;53.92
77572;BME280;67214;47.454;18.966;2023-03-12T00:49:30;99690.58;;;1.34;54.29
77572;BME280;67214;47.454;18.966;2023-03-12T00:51:57;99696.71;;;1.33;54.22
77572;BME280;67214;47.454;18.966;2023-03-12T00:54:25;99701.48;;;1.34;53.79
77572;BME280;67214;47.454;18.966;2023-03-12T00:56:52;99701.94;;;1.33;53.93
77572;BME280;67214;47.454;18.966;2023-03-12T00:59:20;99716.44;;;1.39;54.03
77572;BME280;67214;47.454;18.966;2023-03-12T01:01:47;99710.00;;;1.37;53.87
77572;BME280;67214;47.454;18.966;2023-03-12T01:04:15;99711.92;;;1.34;54.05
77572;BME280;67214;47.454;18.966;2023-03-12T01:06:43;99720.61;;;1.34;53.75
77572;BME280;67214;47.454;18.966;2023-03-12T01:09:10;99719.83;;;1.32;53.78
77572;BME280;67214;47.454;18.966;2023-03-12T01:11:38;99722.44;;;1.32;54.01
77572;BME280;67214;47.454;18.966;2023-03-12T01:14:07;99715.84;;;1.25;53.99
77572;BME280;67214;47.454;18.966;2023-03-12T01:16:35;99721.19;;;1.22;54.06
77572;BME280;67214;47.454;18.966;2023-03-12T01:19:03;99718.68;;;1.29;54.44
77572;BME280;67214;47.454;18.966;2023-03-12T01:21:30;99718.97;;;1.23;53.94
77572;BME280;67214;47.454;18.966;2023-03-12T01:23:58;99719.06;;;1.22;54.32
77572;BME280;67214;47.454;18.966;2023-03-12T01:26:26;99721.28;;;1.21;54.87
77572;BME280;67214;47.454;18.966;2023-03-12T01:28:53;99717.43;;;1.19;54.38
77572;BME280;67214;47.454;18.966;2023-03-12T01:31:21;99723.26;;;1.07;54.94
77572;BME280;67214;47.454;18.966;2023-03-12T01:33:50;99722.41;;;1.07;54.61
77572;BME280;67214;47.454;18.966;2023-03-12T01:36:26;99720.25;;;1.06;55.31
77572;BME280;67214;47.454;18.966;2023-03-12T01:38:56;99725.48;;;0.98;55.48
77572;BME280;67214;47.454;18.966;2023-03-12T01:41:26;99730.77;;;0.96;55.28
77572;BME280;67214;47.454;18.966;2023-03-12T01:43:53;99731.69;;;0.95;55.62
77572;BME280;67214;47.454;18.966;2023-03-12T01:46:24;99731.29;;;0.94;55.78
77572;BME280;67214;47.454;18.966;2023-03-12T01:51:31;99750.91;;;0.75;56.65
77572;BME280;67214;47.454;18.966;2023-03-12T01:54:01;99745.02;;;0.80;56.43
77572;BME280;67214;47.454;18.966;2023-03-12T01:56:31;99746.53;;;0.76;56.74
77572;BME280;67214;47.454;18.966;2023-03-12T01:59:02;99746.91;;;0.68;57.00
77572;BME280;67214;47.454;18.966;2023-03-12T02:01:30;99743.05;;;0.67;56.94
77572;BME280;67214;47.454;18.966;2023-03-12T02:03:59;99741.56;;;0.61;57.47
77572;BME280;67214;47.454;18.966;2023-03-12T02:06:33;99748.17;;;0.60;57.65
77572;BME280;67214;47.454;18.966;2023-03-12T02:09:01;99754.70;;;0.60;57.90
77572;BME280;67214;47.454;18.966;2023-03-12T02:11:30;99760.63;;;0.53;58.06
77572;BME280;67214;47.454;18.966;2023-03-12T02:13:57;99766.40;;;0.51;58.47
77572;BME280;67214;47.454;18.966;2023-03-12T02:16:25;99786.02;;;0.50;58.96
77572;BME280;67214;47.454;18.966;2023-03-12T02:18:54;99789.77;;;0.44;59.18
77572;BME280;67214;47.454;18.966;2023-03-12T02:21:27;99792.58;;;0.39;59.63
77572;BME280;67214;47.454;18.966;2023-03-12T02:24:06;99798.70;;;0.38;59.92
77572;BME280;67214;47.454;18.966;2023-03-12T02:26:35;99804.72;;;0.40;59.91
77572;BME280;67214;47.454;18.966;2023-03-12T02:29:04;99798.31;;;0.37;59.98
77572;BME280;67214;47.454;18.966;2023-03-12T02:31:40;99796.25;;;0.25;60.36
77572;BME280;67214;47.454;18.966;2023-03-12T02:34:04;99808.86;;;0.16;60.60
77572;BME280;67214;47.454;18.966;2023-03-12T02:36:32;99810.73;;;0.22;60.59
77572;BME280;67214;47.454;18.966;2023-03-12T02:38:59;99809.26;;;0.07;61.24
77572;BME280;67214;47.454;18.966;2023-03-12T02:41:36;99803.93;;;-0.01;61.67
77572;BME280;67214;47.454;18.966;2023-03-12T02:44:20;99809.39;;;-0.07;61.89
77572;BME280;67214;47.454;18.966;2023-03-12T02:46:51;99806.31;;;-0.16;62.50
77572;BME280;67214;47.454;18.966;2023-03-12T02:49:20;99819.69;;;-0.14;62.56
77572;BME280;67214;47.454;18.966;2023-03-12T02:51:48;99815.70;;;-0.12;62.88
77572;BME280;67214;47.454;18.966;2023-03-12T02:54:18;99813.61;;;-0.04;62.57
77572;BME280;67214;47.454;18.966;2023-03-12T02:56:47;99819.42;;;0.03;62.63
77572;BME280;67214;47.454;18.966;2023-03-12T02:59:15;99835.83;;;0.05;62.67
77572;BME280;67214;47.454;18.966;2023-03-12T03:01:43;99839.97;;;0.00;62.79
77572;BME280;67214;47.454;18.966;2023-03-12T03:04:11;99841.56;;;-0.08;63.04
77572;BME280;67214;47.454;18.966;2023-03-12T03:06:40;99855.05;;;-0.08;63.07
77572;BME280;67214;47.454;18.966;2023-03-12T03:09:10;99852.34;;;-0.05;63.38
77572;BME280;67214;47.454;18.966;2023-03-12T03:11:37;99856.81;;;-0.19;63.71
77572;BME280;67214;47.454;18.966;2023-03-12T03:14:04;99859.11;;;-0.21;63.85
77572;BME280;67214;47.454;18.966;2023-03-12T03:16:32;99853.97;;;-0.13;63.74
77572;BME280;67214;47.454;18.966;2023-03-12T03:19:00;99863.14;;;-0.14;63.50
77572;BME280;67214;47.454;18.966;2023-03-12T03:21:28;99880.19;;;-0.27;64.12
77572;BME280;67214;47.454;18.966;2023-03-12T03:23:56;99879.33;;;-0.38;64.54
77572;BME280;67214;47.454;18.966;2023-03-12T03:26:24;99884.32;;;-0.43;64.89
77572;BME280;67214;47.454;18.966;2023-03-12T03:28:52;99888.89;;;-0.60;65.53
77572;BME280;67214;47.454;18.966;2023-03-12T03:31:20;99885.56;;;-0.64;65.93
77572;BME280;67214;47.454;18.966;2023-03-12T03:33:48;99891.76;;;-0.66;66.16
77572;BME280;67214;47.454;18.966;2023-03-12T03:36:16;99894.75;;;-0.77;66.59
77572;BME280;67214;47.454;18.966;2023-03-12T03:38:44;99891.20;;;-0.74;66.67
77572;BME280;67214;47.454;18.966;2023-03-12T03:41:14;99899.06;;;-0.76;66.84
77572;BME280;67214;47.454;18.966;2023-03-12T03:43:41;99884.02;;;-0.79;67.02
77572;BME280;67214;47.454;18.966;2023-03-12T03:46:10;99902.82;;;-0.83;67.38
77572;BME280;67214;47.454;18.966;2023-03-12T03:48:39;99892.53;;;-0.86;67.34
77572;BME280;67214;47.454;18.966;2023-03-12T03:51:08;99902.02;;;-0.85;67.43
77572;BME280;67214;47.454;18.966;2023-03-12T03:53:36;99904.74;;;-0.88;67.66
77572;BME280;67214;47.454;18.966;2023-03-12T03:56:08;99904.87;;;-0.91;67.97
77572;BME280;67214;47.454;18.966;2023-03-12T03:58:36;99900.52;;;-0.90;68.10
77572;BME280;67214;47.454;18.966;2023-03-12T04:01:04;99902.84;;;-0.95;68.37
77572;BME280;67214;47.454;18.966;2023-03-12T04:03:33;99903.45;;;-1.00;68.58
77572;BME280;67214;47.454;18.966;2023-03-12T04:06:03;99912.85;;;-1.07;68.87
77572;BME280;67214;47.454;18.966;2023-03-12T04:08:32;99923.92;;;-1.14;69.33
77572;BME280;67214;47.454;18.966;2023-03-12T04:11:14;99928.80;;;-1.16;69.56
77572;BME280;67214;47.454;18.966;2023-03-12T04:13:42;99928.67;;;-1.13;69.51
77572;BME280;67214;47.454;18.966;2023-03-12T04:16:10;99920.26;;;-1.20;69.78
77572;BME280;67214;47.454;18.966;2023-03-12T04:18:38;99911.20;;;-1.21;69.94
77572;BME280;67214;47.454;18.966;2023-03-12T04:21:08;99921.23;;;-1.22;69.94
77572;BME280;67214;47.454;18.966;2023-03-12T04:23:37;99937.73;;;-1.23;70.06
77572;BME280;67214;47.454;18.966;2023-03-12T04:26:05;99947.85;;;-1.27;70.13
77572;BME280;67214;47.454;18.966;2023-03-12T04:28:34;99942.85;;;-1.33;70.30
77572;BME280;67214;47.454;18.966;2023-03-12T04:31:04;99954.52;;;-1.32;70.46
77572;BME280;67214;47.454;18.966;2023-03-12T04:33:35;99960.66;;;-1.34;70.50
77572;BME280;67214;47.454;18.966;2023-03-12T04:36:04;99968.38;;;-1.31;70.40
77572;BME280;67214;47.454;18.966;2023-03-12T04:38:31;99975.20;;;-1.29;70.32
77572;BME280;67214;47.454;18.966;2023-03-12T04:41:10;99969.80;;;-1.23;70.16
77572;BME280;67214;47.454;18.966;2023-03-12T04:43:33;99992.53;;;-1.16;69.98
77572;BME280;67214;47.454;18.966;2023-03-12T04:46:02;100000.61;;;-1.24;70.28
77572;BME280;67214;47.454;18.966;2023-03-12T04:48:30;100006.83;;;-1.28;70.45
77572;BME280;67214;47.454;18.966;2023-03-12T04:50:57;100003.70;;;-1.26;70.51
77572;BME280;67214;47.454;18.966;2023-03-12T04:53:25;100002.25;;;-1.21;70.46
77572;BME280;67214;47.454;18.966;2023-03-12T04:55:53;100002.77;;;-1.23;70.45
77572;BME280;67214;47.454;18.966;2023-03-12T04:58:21;100002.36;;;-1.24;70.48
77572;BME280;67214;47.454;18.966;2023-03-12T05:00:49;100007.72;;;-1.29;70.47
77572;BME280;67214;47.454;18.966;2023-03-12T05:03:17;100015.19;;;-1.31;70.67
77572;BME280;67214;47.454;18.966;2023-03-12T05:05:45;100009.17;;;-1.33;70.56
77572;BME280;67214;47.454;18.966;2023-03-12T05:08:12;100014.34;;;-1.32;70.55
77572;BME280;67214;47.454;18.966;2023-03-12T05:10:40;100013.39;;;-1.18;70.26
77572;BME280;67214;47.454;18.966;2023-03-12T05:13:17;100019.52;;;-1.19;70.08
77572;BME280;67214;47.454;18.966;2023-03-12T05:15:46;100013.34;;;-1.16;70.14
77572;BME280;67214;47.454;18.966;2023-03-12T05:18:15;100013.68;;;-1.14;69.86
77572;BME280;67214;47.454;18.966;2023-03-12T05:20:45;100022.70;;;-1.11;69.73
77572;BME280;67214;47.454;18.966;2023-03-12T05:23:12;100026.64;;;-1.12;69.79
77572;BME280;67214;47.454;18.966;2023-03-12T05:25:40;100026.08;;;-1.09;69.65
77572;BME280;67214;47.454;18.966;2023-03-12T05:28:07;100017.95;;;-1.00;69.24
77572;BME280;67214;47.454;18.966;2023-03-12T05:30:35;100027.80;;;-0.96;69.31
77572;BME280;67214;47.454;18.966;2023-03-12T05:33:02;100026.50;;;-0.73;68.45
77572;BME280;67214;47.454;18.966;2023-03-12T05:35:30;100041.52;;;-0.68;67.99
77572;BME280;67214;47.454;18.966;2023-03-12T05:37:57;100050.58;;;-0.66;67.98
77572;BME280;67214;47.454;18.966;2023-03-12T05:40:25;100043.42;;;-0.73;68.08
77572;BME280;67214;47.454;18.966;2023-03-12T05:42:53;100045.82;;;-0.78;68.27
77572;BME280;67214;47.454;18.966;2023-03-12T05:45:20;100047.91;;;-0.76;68.46
77572;BME280;67214;47.454;18.966;2023-03-12T05:47:47;100053.23;;;-0.79;68.51
77572;BME280;67214;47.454;18.966;2023-03-12T05:50:15;100057.54;;;-0.78;68.43
77572;BME280;67214;47.454;18.966;2023-03-12T05:52:43;100043.27;;;-0.80;68.46
77572;BME280;67214;47.454;18.966;2023-03-12T05:55:10;100068.55;;;-0.83;68.65
77572;BME280;67214;47.454;18.966;2023-03-12T05:57:38;100070.19;;;-0.81;68.47
77572;BME280;67214;47.454;18.966;2023-03-12T06:00:06;100084.92;;;-0.68;68.15
77572;BME280;67214;47.454;18.966;2023-03-12T06:02:33;100084.36;;;-0.65;68.09
77572;BME280;67214;47.454;18.966;2023-03-12T06:05:01;100086.75;;;-0.59;68.13
77572;BME280;67214;47.454;18.966;2023-03-12T06:07:28;100076.30;;;-0.45;67.56
77572;BME280;67214;47.454;18.966;2023-03-12T06:09:56;100091.91;;;-0.34;66.99
77572;BME280;67214;47.454;18.966;2023-03-12T06:12:25;100088.86;;;-0.33;66.85
77572;BME280;67214;47.454;18.966;2023-03-12T06:14:52;100110.88;;;-0.19;66.52
77572;BME280;67214;47.454;18.966;2023-03-12T06:17:20;100115.52;;;-0.15;66.12
77572;BME280;67214;47.454;18.966;2023-03-12T06:19:51;100124.91;;;-0.11;66.20
77572;BME280;67214;47.454;18.966;2023-03-12T06:22:19;100125.88;;;-0.02;66.10
77572;BME280;67214;47.454;18.966;2023-03-12T06:24:47;100129.00;;;0.08;65.63
77572;BME280;67214;47.454;18.966;2023-03-12T06:27:15;100130.91;;;0.14;65.35
77572;BME280;67214;47.454;18.966;2023-03-12T06:29:43;100139.42;;;0.29;64.94
77572;BME280;67214;47.454;18.966;2023-03-12T06:32:12;100142.58;;;0.37;64.61
77572;BME280;67214;47.454;18.966;2023-03-12T06:34:40;100153.20;;;0.44;64.74
77572;BME280;67214;47.454;18.966;2023-03-12T06:37:07;100145.38;;;0.55;64.20
77572;BME280;67214;47.454;18.966;2023-03-12T06:39:36;100144.62;;;0.63;64.04
77572;BME280;67214;47.454;18.966;2023-03-12T06:42:04;100151.55;;;0.74;63.55
77572;BME280;67214;47.454;18.966;2023-03-12T06:44:32;100156.22;;;0.87;63.21
77572;BME280;67214;47.454;18.966;2023-03-12T06:46:59;100156.09;;;0.90;63.00
77572;BME280;67214;47.454;18.966;2023-03-12T06:49:26;100153.82;;;1.03;62.77
77572;BME280;67214;47.454;18.966;2023-03-12T06:51:56;100161.87;;;1.09;62.03
77572;BME280;67214;47.454;18.966;2023-03-12T06:54:23;100169.91;;;1.24;62.17
77572;BME280;67214;47.454;18.966;2023-03-12T06:56:51;100167.50;;;1.30;61.48
77572;BME280;67214;47.454;18.966;2023-03-12T06:59:18;100165.20;;;1.32;61.01
77572;BME280;67214;47.454;18.966;2023-03-12T07:01:47;100174.08;;;1.28;61.17
77572;BME280;67214;47.454;18.966;2023-03-12T07:04:15;100177.55;;;1.49;60.94
77572;BME280;67214;47.454;18.966;2023-03-12T07:06:43;100188.70;;;1.53;60.38
77572;BME280;67214;47.454;18.966;2023-03-12T07:09:12;100180.02;;;1.62;59.11
77572;BME280;67214;47.454;18.966;2023-03-12T07:11:39;100185.08;;;1.75;59.23
77572;BME280;67214;47.454;18.966;2023-03-12T07:14:07;100183.72;;;1.87;59.02
77572;BME280;67214;47.454;18.966;2023-03-12T07:16:34;100189.26;;;1.79;59.07
77572;BME280;67214;47.454;18.966;2023-03-12T07:19:02;100190.62;;;1.88;58.82
77572;BME280;67214;47.454;18.966;2023-03-12T07:21:29;100192.87;;;1.87;58.56
77572;BME280;67214;47.454;18.966;2023-03-12T07:23:57;100188.77;;;2.00;58.38
77572;BME280;67214;47.454;18.966;2023-03-12T07:26:26;100166.42;;;2.03;57.79
77572;BME280;67214;47.454;18.966;2023-03-12T07:28:53;100183.21;;;2.08;57.78
77572;BME280;67214;47.454;18.966;2023-03-12T07:31:20;100189.25;;;2.18;57.36
77572;BME280;67214;47.454;18.966;2023-03-12T07:33:48;100183.63;;;2.17;57.59
77572;BME280;67214;47.454;18.966;2023-03-12T07:36:15;100196.49;;;2.22;57.46
77572;BME280;67214;47.454;18.966;2023-03-12T07:38:43;100199.76;;;2.27;57.24
77572;BME280;67214;47.454;18.966;2023-03-12T07:41:10;100202.02;;;2.16;57.18
77572;BME280;67214;47.454;18.966;2023-03-12T07:43:37;100204.40;;;2.20;57.37
77572;BME280;67214;47.454;18.966;2023-03-12T07:46:05;100206.09;;;2.31;56.93
77572;BME280;67214;47.454;18.966;2023-03-12T07:48:32;100204.78;;;2.31;57.02
77572;BME280;67214;47.454;18.966;2023-03-12T07:51:00;100195.98;;;2.32;56.93
77572;BME280;67214;47.454;18.966;2023-03-12T07:53:27;100202.02;;;2.34;57.00
77572;BME280;67214;47.454;18.966;2023-03-12T07:55:55;100204.22;;;2.71;57.03
77572;BME280;67214;47.454;18.966;2023-03-12T07:58:22;100199.02;;;2.88;56.14
77572;BME280;67214;47.454;18.966;2023-03-12T08:00:50;100205.58;;;2.69;55.29
77572;BME280;67214;47.454;18.966;2023-03-12T08:03:19;100207.53;;;2.74;55.51
77572;BME280;67214;47.454;18.966;2023-03-12T08:05:54;100210.00;;;3.05;55.30
77572;BME280;67214;47.454;18.966;2023-03-12T08:08:22;100207.46;;;3.20;54.83
77572;BME280;67214;47.454;18.966;2023-03-12T08:10:49;100212.32;;;3.28;53.87
77572;BME280;67214;47.454;18.966;2023-03-12T08:13:17;100214.08;;;3.19;53.33
77572;BME280;67214;47.454;18.966;2023-03-12T08:15:44;100208.79;;;3.38;52.70
77572;BME280;67214;47.454;18.966;2023-03-12T08:18:12;100221.03;;;3.28;53.22
77572;BME280;67214;47.454;18.966;2023-03-12T08:20:39;100221.89;;;3.38;53.09
77572;BME280;67214;47.454;18.966;2023-03-12T08:23:06;100213.57;;;3.38;52.89
77572;BME280;67214;47.454;18.966;2023-03-12T08:25:34;100228.58;;;3.17;53.19
77572;BME280;67214;47.454;18.966;2023-03-12T08:28:03;100224.57;;;3.27;53.19
77572;BME280;67214;47.454;18.966;2023-03-12T08:30:31;100223.43;;;3.33;52.92
77572;BME280;67214;47.454;18.966;2023-03-12T08:32:58;100230.28;;;3.79;52.44
77572;BME280;67214;47.454;18.966;2023-03-12T08:35:25;100225.39;;;3.88;51.46
77572;BME280;67214;47.454;18.966;2023-03-12T08:37:56;100226.86;;;3.94;51.34
77572;BME280;67214;47.454;18.966;2023-03-12T08:40:25;100224.20;;;4.11;51.40
77572;BME280;67214;47.454;18.966;2023-03-12T08:42:52;100230.35;;;4.18;50.19
77572;BME280;67214;47.454;18.966;2023-03-12T08:45:20;100221.03;;;4.29;49.93
77572;BME280;67214;47.454;18.966;2023-03-12T08:47:47;100214.86;;;4.30;50.17
77572;BME280;67214;47.454;18.966;2023-03-12T08:50:15;100216.45;;;4.16;49.73
77572;BME280;67214;47.454;18.966;2023-03-12T08:52:43;100217.62;;;4.19;49.25
77572;BME280;67214;47.454;18.966;2023-03-12T08:55:11;100216.00;;;4.33;49.32
77572;BME280;67214;47.454;18.966;2023-03-12T08:57:39;100216.72;;;4.52;49.02
77572;BME280;67214;47.454;18.966;2023-03-12T09:00:08;100217.86;;;4.71;49.33
77572;BME280;67214;47.454;18.966;2023-03-12T09:02:37;100212.27;;;4.92;47.50
77572;BME280;67214;47.454;18.966;2023-03-12T09:05:05;100217.32;;;4.73;47.44
77572;BME280;67214;47.454;18.966;2023-03-12T09:07:33;100214.08;;;4.83;46.49
77572;BME280;67214;47.454;18.966;2023-03-12T09:10:00;100217.89;;;4.78;46.75
77572;BME280;67214;47.454;18.966;2023-03-12T09:12:28;100213.28;;;4.74;48.24
77572;BME280;67214;47.454;18.966;2023-03-12T09:14:55;100210.56;;;4.91;47.51
77572;BME280;67214;47.454;18.966;2023-03-12T09:17:23;100216.06;;;5.25;47.14
77572;BME280;67214;47.454;18.966;2023-03-12T09:19:51;100208.80;;;5.51;44.48
77572;BME280;67214;47.454;18.966;2023-03-12T09:22:18;100206.82;;;5.48;44.10
77572;BME280;67214;47.454;18.966;2023-03-12T09:24:46;100205.82;;;5.57;42.76
77572;BME280;67214;47.454;18.966;2023-03-12T09:27:13;100203.12;;;5.73;42.79
77572;BME280;67214;47.454;18.966;2023-03-12T09:29:41;100197.00;;;5.73;42.88
77572;BME280;67214;47.454;18.966;2023-03-12T09:32:08;100205.36;;;5.72;44.08
77572;BME280;67214;47.454;18.966;2023-03-12T09:34:36;100198.73;;;5.88;42.68
77572;BME280;67214;47.454;18.966;2023-03-12T09:37:04;100204.30;;;5.90;42.33
77572;BME280;67214;47.454;18.966;2023-03-12T09:39:31;100202.69;;;6.16;41.54
77572;BME280;67214;47.454;18.966;2023-03-12T09:41:58;100204.08;;;6.50;40.57
77572;BME280;67214;47.454;18.966;2023-03-12T09:44:41;100204.83;;;6.59;40.48
77572;BME280;67214;47.454;18.966;2023-03-12T09:47:16;100196.37;;;6.47;41.58
77572;BME280;67214;47.454;18.966;2023-03-12T09:49:48;100208.78;;;6.59;40.73
77572;BME280;67214;47.454;18.966;2023-03-12T09:52:28;100203.02;;;6.67;39.07
77572;BME280;67214;47.454;18.966;2023-03-12T09:55:13;100209.91;;;6.96;37.67
77572;BME280;67214;47.454;18.966;2023-03-12T09:57:42;100202.73;;;6.98;37.65
77572;BME280;67214;47.454;18.966;2023-03-12T10:00:12;100203.23;;;7.37;37.05
77572;BME280;67214;47.454;18.966;2023-03-12T10:05:37;100194.31;;;7.06;40.29
77572;BME280;67214;47.454;18.966;2023-03-12T10:22:00;100192.33;;;7.48;37.26
77572;BME280;67214;47.454;18.966;2023-03-12T10:27:13;100191.06;;;7.41;40.55
77572;BME280;67214;47.454;18.966;2023-03-12T10:29:43;100192.63;;;7.44;40.69
77572;BME280;67214;47.454;18.966;2023-03-12T10:32:14;100196.87;;;7.59;39.75
77572;BME280;67214;47.454;18.966;2023-03-12T10:34:51;100186.80;;;8.09;38.54
77572;BME280;67214;47.454;18.966;2023-03-12T10:37:21;100201.34;;;8.27;38.66
77572;BME280;67214;47.454;18.966;2023-03-12T10:39:49;100188.44;;;7.92;37.38
77572;BME280;67214;47.454;18.966;2023-03-12T10:42:20;100196.99;;;7.95;38.95
77572;BME280;67214;47.454;18.966;2023-03-12T10:44:57;100209.83;;;7.69;38.83
77572;BME280;67214;47.454;18.966;2023-03-12T10:47:41;100205.91;;;7.75;39.23
77572;BME280;67214;47.454;18.966;2023-03-12T10:50:21;100205.36;;;7.89;39.15
77572;BME280;67214;47.454;18.966;2023-03-12T10:52:51;100204.38;;;8.03;38.17
77572;BME280;67214;47.454;18.966;2023-03-12T10:55:27;100207.08;;;7.96;37.96
77572;BME280;67214;47.454;18.966;2023-03-12T10:57:56;100216.33;;;7.96;36.43
77572;BME280;67214;47.454;18.966;2023-03-12T11:00:29;100215.83;;;7.71;36.62
77572;BME280;67214;47.454;18.966;2023-03-12T11:03:08;100209.12;;;8.30;37.95
77572;BME280;67214;47.454;18.966;2023-03-12T11:05:44;100219.50;;;8.01;35.94
77572;BME280;67214;47.454;18.966;2023-03-12T11:08:11;100212.05;;;8.13;35.86
77572;BME280;67214;47.454;18.966;2023-03-12T11:10:43;100212.77;;;8.28;35.64
77572;BME280;67214;47.454;18.966;2023-03-12T11:15:55;100211.57;;;8.26;34.18
77572;BME280;67214;47.454;18.966;2023-03-12T11:18:34;100220.98;;;8.05;32.17
77572;BME280;67214;47.454;18.966;2023-03-12T11:23:45;100207.02;;;8.16;32.40
77572;BME280;67214;47.454;18.966;2023-03-12T11:26:19;100211.38;;;8.29;31.65
77572;BME280;67214;47.454;18.966;2023-03-12T11:28:53;100214.63;;;8.46;31.06
77572;BME280;67214;47.454;18.966;2023-03-12T11:31:24;100208.57;;;8.56;28.86
77572;BME280;67214;47.454;18.966;2023-03-12T11:33:52;100218.05;;;8.53;28.44
77572;BME280;67214;47.454;18.966;2023-03-12T11:39:04;100214.45;;;8.54;28.72
77572;BME280;67214;47.454;18.966;2023-03-12T11:41:35;100210.79;;;8.62;29.73
77572;BME280;67214;47.454;18.966;2023-03-12T11:44:19;100216.17;;;8.61;29.14
77572;BME280;67214;47.454;18.966;2023-03-12T11:52:43;100206.70;;;8.82;31.40
77572;BME280;67214;47.454;18.966;2023-03-12T11:55:35;100204.34;;;9.14;30.10
77572;BME280;67214;47.454;18.966;2023-03-12T11:58:41;100215.95;;;9.24;30.20
77572;BME280;67214;47.454;18.966;2023-03-12T12:01:15;100203.98;;;8.89;28.62
77572;BME280;67214;47.454;18.966;2023-03-12T12:17:56;100191.33;;;9.29;27.28
77572;BME280;67214;47.454;18.966;2023-03-12T12:20:42;100192.75;;;9.27;25.94
77572;BME280;67214;47.454;18.966;2023-03-12T12:23:31;100180.97;;;9.72;25.20
77572;BME280;67214;47.454;18.966;2023-03-12T12:26:07;100182.72;;;10.23;26.86
77572;BME280;67214;47.454;18.966;2023-03-12T12:29:28;100172.70;;;9.82;25.67
77572;BME280;67214;47.454;18.966;2023-03-12T12:31:23;100167.38;;;9.76;25.27
77572;BME280;67214;47.454;18.966;2023-03-12T12:36:32;100164.91;;;10.31;24.79
77572;BME280;67214;47.454;18.966;2023-03-12T12:39:08;100167.16;;;10.13;25.18
77572;BME280;67214;47.454;18.966;2023-03-12T12:41:35;100164.16;;;10.45;25.64
77572;BME280;67214;47.454;18.966;2023-03-12T12:44:16;100169.22;;;10.32;24.27
77572;BME280;67214;47.454;18.966;2023-03-12T12:46:44;100175.34;;;10.04;25.24
77572;BME280;67214;47.454;18.966;2023-03-12T12:49:18;100180.02;;;9.84;23.52
77572;BME280;67214;47.454;18.966;2023-03-12T12:51:47;100186.41;;;9.36;24.19
77572;BME280;67214;47.454;18.966;2023-03-12T12:57:21;100166.95;;;10.21;24.05
77572;BME280;67214;47.454;18.966;2023-03-12T13:00:19;100177.20;;;10.43;24.73
77572;BME280;67214;47.454;18.966;2023-03-12T13:02:45;100163.18;;;10.63;23.65
77572;BME280;67214;47.454;18.966;2023-03-12T13:05:24;100158.17;;;11.44;22.30
77572;BME280;67214;47.454;18.966;2023-03-12T13:07:49;100165.53;;;11.88;22.13
77572;BME280;67214;47.454;18.966;2023-03-12T13:13:20;100155.66;;;14.22;20.55
77572;BME280;67214;47.454;18.966;2023-03-12T13:15:48;100165.50;;;14.76;19.85
77572;BME280;67214;47.454;18.966;2023-03-12T13:18:21;100159.33;;;15.86;18.27
77572;BME280;67214;47.454;18.966;2023-03-12T13:23:43;100153.17;;;15.85;20.10
77572;BME280;67214;47.454;18.966;2023-03-12T13:26:26;100159.34;;;13.55;19.98
77572;BME280;67214;47.454;18.966;2023-03-12T13:28:57;100168.27;;;13.40;19.29
77572;BME280;67214;47.454;18.966;2023-03-12T13:31:32;100157.83;;;15.08;19.57
77572;BME280;67214;47.454;18.966;2023-03-12T13:36:50;100161.91;;;15.95;18.70
77572;BME280;67214;47.454;18.966;2023-03-12T13:39:34;100173.17;;;16.62;18.58
77572;BME280;67214;47.454;18.966;2023-03-12T13:42:47;100175.14;;;16.31;18.54
77572;BME280;67214;47.454;18.966;2023-03-12T13:44:38;100182.06;;;15.60;20.07
77572;BME280;67214;47.454;18.966;2023-03-12T13:47:21;100182.87;;;17.38;19.03
77572;BME280;67214;47.454;18.966;2023-03-12T13:49:59;100172.27;;;15.94;19.21
77572;BME280;67214;47.454;18.966;2023-03-12T13:52:52;100183.42;;;16.41;20.16
77572;BME280;67214;47.454;18.966;2023-03-12T13:55:33;100162.59;;;18.55;18.62
77572;BME280;67214;47.454;18.966;2023-03-12T13:58:17;100161.86;;;19.72;17.82
77572;BME280;67214;47.454;18.966;2023-03-12T14:03:21;100162.46;;;19.78;17.03
77572;BME280;67214;47.454;18.966;2023-03-12T14:06:07;100174.67;;;17.39;18.68
77572;BME280;67214;47.454;18.966;2023-03-12T14:09:00;100162.07;;;19.48;16.99
77572;BME280;67214;47.454;18.966;2023-03-12T14:17:23;100160.36;;;19.51;16.93